• Join FlightAware (Why Join?)
  • Login
  • US Flag 
02:34PM EDT


 

Airport Tracker/Info


-or-


 

Live Flight TrackerFlight Track Log ✈ UAL4295 ✈ 29-Apr-2013 ✈ KEWR - KMCI

Flight Track Log - Related Links

Times and Time Zones

All times are in EDT time to prevent confusion due to time zone crossing. See the UAL4295 flight status page for this flight to view local times or setup timezone preferences in your user account.

Time Position Orientation Groundspeed Altitude Reporting Facility
EDT Latitude Longitude Course Direction KTS MPH feet Rate Location/Type
07:59PM 40.6500 -74.2500 303° West 227 261 3,600  Level New York TRACON
08:00PM 40.6833 -74.3333 298° West 259 298 5,700 2,400 Climbing New York TRACON
08:01PM 40.7368 -74.5543 277° West  Level FlightAware Approximate
08:01PM 40.7000 -74.4167 285° West 276 318 8,400  Level New York TRACON
08:02PM 40.7491 -74.6897 277° West  Level FlightAware Approximate
08:02PM 40.7333 -74.5167 294° West 276 318 10,000  Level New York TRACON
08:03PM 40.7597 -74.8254 276° West  Level FlightAware Approximate
08:04PM 40.7803 -74.9576 294° West  Level FlightAware Approximate
08:04PM 40.7617 -74.7381 280° West 341 392 12,500  Level New York Center
08:05PM 40.7944 -75.0888 303° West  Level FlightAware Approximate
08:05PM 40.7758 -74.8678 278° West 341 392 14,500  Level New York Center
08:06PM 40.7883 -74.9892 278° West 360 414 15,700 1,320 Climbing New York Center
08:07PM 40.7997 -75.1378 276° West 375 432 17,200 1,140 Climbing New York Center
08:08PM 40.7819 -75.2739 260° West 369 425 18,000 900 Climbing New York Center
08:09PM 40.7631 -75.3847 257° West 380 437 19,000 1,140 Climbing New York Center
08:10PM 40.7092 -75.5400 245° Southwest 386 444 20,400 1,200 Climbing New York Center
08:11PM 40.6600 -75.6678 243° Southwest 393 452 21,500 1,020 Climbing New York Center
08:12PM 40.6106 -75.8039 244° Southwest 398 458 22,500 840 Climbing New York Center
08:13PM 40.5594 -75.9258 241° Southwest 415 478 23,200 660 Climbing New York Center
08:14PM 40.5075 -76.0611 243° Southwest 421 484 23,900 660 Climbing New York Center
08:15PM 40.4533 -76.2042 244° Southwest 426 490 24,600 660 Climbing New York Center
08:16PM 40.3986 -76.3444 243° Southwest 426 490 25,300 720 Climbing New York Center
08:17PM 40.3442 -76.4844 243° Southwest 432 497 26,100 900 Climbing New York Center
08:18PM 40.3017 -76.6253 248° West 432 497 27,100 960 Climbing New York Center
08:19PM 40.2944 -76.7689 266° West 410 472 28,100 960 Climbing New York Center
08:20PM 40.2850 -76.9150 265° West 410 472 29,100 960 Climbing New York Center
08:21PM 40.2794 -77.0614 267° West 404 465 30,100 960 Climbing New York Center
08:22PM 40.2697 -77.2019 265° West 404 465 31,100 960 Climbing New York Center
08:23PM 40.2650 -77.3622 268° West 404 465 32,100 960 Climbing New York Center
08:26PM 40.2469 -77.6778 266° West 390 449 34,300 960 Climbing Cleveland Center
08:27PM 40.2381 -77.8197 265° West 390 449 35,300 840 Climbing Cleveland Center
08:28PM 40.2289 -77.9642 265° West 397 457 36,000 300 Climbing Cleveland Center
08:29PM 40.2197 -78.1114 265° West 402 463 36,000  Level Cleveland Center
08:30PM 40.2206 -78.2608 270° West 409 471 36,000  Level Cleveland Center
08:31PM 40.2217 -78.4133 271° West 415 478 36,000  Level Cleveland Center
08:32PM 40.2267 -78.5681 272° West 421 484 36,000  Level Cleveland Center
08:33PM 40.2269 -78.7203 270° West 421 484 36,000  Level Cleveland Center
08:34PM 40.2275 -78.8725 270° West 421 484 36,000  Level Cleveland Center
08:35PM 40.2317 -79.0247 272° West 421 484 36,000  Level Cleveland Center
08:36PM 40.2314 -79.1744 270° West 421 484 36,000  Level Cleveland Center
08:37PM 40.2353 -79.3239 272° West 421 484 36,000  Level Cleveland Center
08:38PM 40.2369 -79.4761 271° West 421 484 36,000  Level Cleveland Center
08:39PM 40.2383 -79.6286 271° West 421 484 36,000  Level Cleveland Center
08:40PM 40.2375 -79.7917 270° West 421 484 36,000  Level Cleveland Center
08:41PM 40.2383 -79.9467 270° West 421 484 36,000  Level Cleveland Center
08:42PM 40.2369 -80.0989 269° West 421 484 36,000  Level Cleveland Center
08:43PM 40.2375 -80.2539 270° West 421 484 36,000  Level Cleveland Center
08:44PM 40.2400 -80.4036 271° West 421 484 36,000  Level Cleveland Center
08:45PM 40.2381 -80.5558 269° West 421 484 36,000  Level Cleveland Center
08:46PM 40.2381 -80.7083 270° West 421 484 36,000  Level Cleveland Center
08:47PM 40.2356 -80.8606 269° West 421 484 36,000  Level Cleveland Center
08:49PM 40.2303 -81.1947 269° West 416 479 36,000  Level Indianapolis Center
08:50PM 40.2292 -81.3481 270° West 416 479 36,000  Level Indianapolis Center
08:51PM 40.2275 -81.5014 269° West 415 478 36,000  Level Indianapolis Center
08:52PM 40.2247 -81.6556 269° West 419 482 36,000  Level Indianapolis Center
08:53PM 40.2219 -81.8197 269° West 420 483 36,000  Level Indianapolis Center
08:54PM 40.2203 -81.9728 269° West 419 482 36,000  Level Indianapolis Center
08:55PM 40.1883 -82.1203 254° West 422 486 36,000  Level Indianapolis Center
08:56PM 40.1597 -82.2686 256° West 417 480 36,000 -60 Level Indianapolis Center
08:57PM 40.1319 -82.4178 256° West 418 481 35,900  Descending Indianapolis Center
08:58PM 40.1047 -82.5653 256° West 416 479 36,000  Climbing Indianapolis Center
08:59PM 40.0767 -82.7142 256° West 418 481 36,000  Level Indianapolis Center
09:00PM 40.0553 -82.8631 259° West 418 481 36,000  Level Indianapolis Center
09:01PM 40.0561 -83.0117 270° West 410 472 36,000  Level Indianapolis Center
09:02PM 40.0558 -83.1622 270° West 411 473 36,000  Level Indianapolis Center
09:03PM 40.0550 -83.3369 270° West 413 475 36,000  Level Indianapolis Center
09:04PM 40.0536 -83.4853 269° West 411 473 36,000  Level Indianapolis Center
09:05PM 40.0519 -83.6344 269° West 413 475 36,000  Level Indianapolis Center
09:06PM 40.0508 -83.7828 269° West 410 472 36,000  Level Indianapolis Center
09:07PM 40.0494 -83.9331 269° West 412 474 36,000  Level Indianapolis Center
09:08PM 40.0469 -84.0814 269° West 410 472 36,000  Level Indianapolis Center
09:09PM 40.0453 -84.2317 269° West 411 473 36,000  Level Indianapolis Center
09:10PM 40.0433 -84.3800 269° West 408 470 36,000  Level Indianapolis Center
09:11PM 40.0408 -84.5294 269° West 410 472 36,000  Level Indianapolis Center
09:12PM 40.0378 -84.6806 269° West 412 474 36,000  Level Indianapolis Center
09:13PM 40.0350 -84.8558 269° West 411 473 36,000  Level Indianapolis Center
09:14PM 40.0317 -84.9967 268° West 411 473 36,000  Level Indianapolis Center
09:15PM 40.0275 -85.1453 268° West 409 471 36,000  Level Indianapolis Center
09:17PM 40.0250 -85.2944 269° West 410 472 36,000  Level Indianapolis Center
09:18PM 40.0222 -85.4431 269° West 409 471 36,000  Level Indianapolis Center
09:19PM 40.0175 -85.5908 268° West 406 467 36,000  Level Indianapolis Center
09:20PM 40.0119 -85.7889 268° West 409 471 36,000  Level Indianapolis Center
09:21PM 40.0081 -85.9356 268° West 405 466 36,000  Level Indianapolis Center
09:22PM 40.0033 -86.0833 268° West 409 471 36,000  Level Indianapolis Center
09:23PM 40.0008 -86.2044 268° West 407 468 36,000  Level Chicago Center
09:24PM 39.9961 -86.3514 268° West 409 471 36,000  Level Chicago Center
09:25PM 39.9903 -86.5222 268° West 406 467 36,000  Level Chicago Center
09:26PM 39.9850 -86.6694 267° West 408 470 36,000  Level Chicago Center
09:27PM 39.9794 -86.8172 267° West 407 468 36,000  Level Chicago Center
09:28PM 39.9719 -86.9883 267° West 407 468 36,000  Level Indianapolis Center
09:29PM 39.9669 -87.1358 268° West 406 467 36,000  Level Indianapolis Center
09:30PM 39.9614 -87.2831 267° West 405 466 36,000  Level Indianapolis Center
09:31PM 39.9544 -87.4303 267° West 406 467 36,000  Level Indianapolis Center
09:32PM 39.9483 -87.5778 267° West 406 467 36,000  Level Indianapolis Center
09:33PM 39.9422 -87.7261 267° West 407 468 36,000  Level Indianapolis Center
09:34PM 39.9356 -87.8731 267° West 404 465 36,000  Level Indianapolis Center
09:35PM 39.9286 -88.0222 267° West 409 471 36,000  Level Indianapolis Center
09:36PM 39.9222 -88.1678 267° West 404 465 36,000  Level Indianapolis Center
09:37PM 39.9147 -88.3164 266° West 407 468 36,000  Level Indianapolis Center
09:38PM 39.9083 -88.4644 267° West 407 468 36,000  Level Chicago Center
09:39PM 39.9008 -88.6117 266° West 407 468 36,000  Level Chicago Center
09:40PM 39.8906 -88.7889 266° West 408 470 36,000  Level Kansas City Center
09:41PM 39.8822 -88.9356 266° West 407 468 36,000  Level Kansas City Center
09:42PM 39.8742 -89.0831 266° West 407 468 36,000  Level Kansas City Center
09:43PM 39.8650 -89.2300 265° West 408 470 36,000  Level Kansas City Center
09:44PM 39.8578 -89.3778 266° West 408 470 36,000  Level Kansas City Center
09:45PM 39.8481 -89.5253 265° West 408 470 36,000  Level Kansas City Center
09:46PM 39.8400 -89.6733 266° West 409 471 36,000  Level Kansas City Center
09:47PM 39.8403 -89.8231 270° West 411 473 36,000  Level Kansas City Center
09:48PM 39.8417 -89.9703 271° West 410 472 36,000  Level Kansas City Center
09:49PM 39.8436 -90.1492 271° West 411 473 36,000  Level Kansas City Center
09:50PM 39.8453 -90.2981 271° West 410 472 36,000  Level Kansas City Center
09:52PM 39.8467 -90.4458 271° West 409 471 36,000  Level Kansas City Center
09:53PM 39.8472 -90.5917 270° West 406 467 36,000  Level Kansas City Center
09:54PM 39.8475 -90.7372 270° West 403 464 36,000  Level Kansas City Center
09:55PM 39.8478 -90.8831 270° West 404 465 36,000  Level Kansas City Center
09:56PM 39.8481 -91.0367 270° West 402 463 36,000  Level Kansas City Center
09:58PM 39.8318 -91.3045 267° West  Level FlightAware Approximate
09:58PM 39.8447 -91.3275 267° West 405 466 36,000  Level Kansas City Center
09:59PM 39.8328 -91.4733 264° West 406 467 36,000  Level Kansas City Center
10:00PM 39.8233 -91.6172 265° West 405 466 36,000  Level Kansas City Center
10:01PM 39.8092 -91.7922 264° West 407 468 36,000  Level Kansas City Center
10:02PM 39.7981 -91.9389 264° West 408 470 36,000  Level Kansas City Center
10:03PM 39.7867 -92.0850 264° West 408 470 36,000  Level Kansas City Center
10:04PM 39.7753 -92.2317 264° West 409 471 36,000  Level Kansas City Center
10:05PM 39.7633 -92.3800 264° West 412 474 36,000  Level Kansas City Center
10:06PM 39.7514 -92.5278 264° West 412 474 36,000 -1,320 Level Kansas City Center
10:07PM 39.7389 -92.6714 264° West 406 467 33,400 -2,640 Descending Kansas City Center
10:08PM 39.7267 -92.8131 264° West 401 461 30,600 -2,700 Descending Kansas City Center
10:09PM 39.7131 -92.9633 263° West 410 472 27,900 -2,940 Descending Kansas City Center
10:10PM 39.6978 -93.1461 264° West 424 488 24,700 -3,060 Descending Kansas City Center
10:11PM 39.6844 -93.2950 263° West 419 482 21,700 -2,880 Descending Kansas City Center
10:12PM 39.6725 -93.4358 264° West 404 465 18,800 -2,940 Descending Kansas City Center
10:13PM 39.6589 -93.5658 262° West 379 436 15,700 -3,000 Descending Kansas City Center
10:14PM 39.6467 -93.6972 263° West 370 426 12,800 -1,860 Descending Kansas City Center
10:15PM 39.6358 -93.8281 264° West 352 405 12,000 -780 Descending Kansas City Center
10:16PM 39.5917 -93.9539 246° West 342 394 11,300 -840 Descending Kansas City Center
10:17PM 39.5486 -94.0378 236° Southwest 293 337 10,300 -1,200 Descending Kansas City Center
10:18PM 39.5281 -94.1217 252° West 257 296 8,900 -1,320 Descending Kansas City Center
10:19PM 39.5158 -94.2250 261° West 260 299 7,600 -960 Descending Kansas City Center
10:20PM 39.5058 -94.3108 261° West 253 291 7,000 -300 Descending Kansas City Center
10:21PM 39.4975 -94.3964 263° West 251 289 7,000 -780 Level Kansas City Center
10:22PM 39.4889 -94.4900 263° West 232 267 5,500 -1,080 Descending Kansas City Center
10:23PM 39.4850 -94.5611 266° West 211 243 4,900 -840 Descending Kansas City Center
10:24PM 39.4672 -94.6158 247° West 149 171 3,900 -720 Descending Kansas City Center
10:25PM 39.4383 -94.6467 220° Southwest 141 162 3,500 -540 Descending Kansas City Center
10:26PM 39.4072 -94.6700 210° Southwest 135 155 2,900 -660 Descending Kansas City Center
10:27PM 39.3722 -94.6817 194° South 116 133 2,200 -720 Descending Kansas City Center